Unser Platzwetter:
(um das Bild zu aktualisieren oder bei unvollständig geladenem Bild den Reload-Button des Browsers drücken)

 

 
[Quelle: ADDS]
METAR
ETNN 160020Z 19003KT 9999 BKN025 05/01 Q1005 BLU =
TAF
SR / SS: 06:49 / 15:45 UTC (Vettweiss-Soller 2019-11-16)
 

Hier gibt es ein Wetterdiagramm der letzten 7 Tage.

Hier geht es zu unserer Webcam.

Satelitenbild:

aktuelles Meteosat-Bild von www.wetterzentrale.de